Terminal Aerodrome Forecast
Issued by NWS

Current Version | Previous Version | Graphics & Text | Print | Product List | Glossary On
Versions: 1 2 3 4 5 6 7 8 9 10 11 12 13 14 15 16 17 18 19
000
FTUS41 KPBZ 150800 AAA
TAFHLG
TAF AMD
KHLG 150818Z 1508/1606 00000KT 1/4SM FG VV002
     FM151200 VRB03KT 2SM BR SCT003
     FM151400 17005KT P6SM SCT250=

USA.gov is the U.S. government's official web portal to all federal, state and local government web resources and services.